Time;durP1;ratioP1;P1;durP2;ratioP2;P2;SDS_P1;SDS_P2;PMS_P1;PMS_P2;Temp;Humidity;BMP_temperature;BMP_pressure;BME280_temperature;BME280_humidity;BME280_pressure;Samples;Min_cycle;Max_cycle;Signal;HPM_P1;HPM_P2
2022/07/21 00:01:45;;;;;;;6.15;4.15;;;19.70;99.90;;;;;;5037721;28;20103;-72
2022/07/21 00:04:11;;;;;;;7.32;4.13;;;19.60;99.90;;;;;;5044094;28;20120;-71
2022/07/21 00:06:37;;;;;;;6.70;4.13;;;19.60;99.90;;;;;;5050568;28;20128;-71
2022/07/21 00:09:03;;;;;;;7.97;4.43;;;19.50;99.90;;;;;;5050083;28;20061;-71
2022/07/21 00:11:28;;;;;;;8.73;4.00;;;19.50;99.90;;;;;;5050399;28;20043;-71
2022/07/21 00:13:54;;;;;;;7.47;4.38;;;19.40;99.90;;;;;;5042840;28;20033;-71
2022/07/21 00:16:20;;;;;;;8.05;4.65;;;19.40;99.90;;;;;;5042282;28;20029;-71
2022/07/21 00:18:46;;;;;;;9.40;4.97;;;19.40;99.90;;;;;;5040532;28;20045;-69
2022/07/21 00:21:11;;;;;;;8.23;4.50;;;19.30;99.90;;;;;;5030825;28;20045;-68
2022/07/21 00:23:38;;;;;;;9.57;4.72;;;19.30;99.90;;;;;;5029961;28;20044;-69
2022/07/21 00:26:03;;;;;;;9.15;5.13;;;19.20;99.90;;;;;;5030296;28;20061;-69
2022/07/21 00:28:29;;;;;;;9.85;5.10;;;19.10;99.90;;;;;;5034581;28;20045;-69
2022/07/21 00:30:55;;;;;;;10.55;5.90;;;19.10;99.90;;;;;;5040749;28;20080;-70
2022/07/21 00:33:20;;;;;;;9.90;5.10;;;19.00;99.90;;;;;;5048513;28;20410;-70
2022/07/21 00:35:46;;;;;;;10.30;5.40;;;18.90;99.90;;;;;;5037919;28;20402;-71
2022/07/21 00:38:12;;;;;;;10.00;5.57;;;18.80;99.90;;;;;;5045941;28;20075;-70
2022/07/21 00:40:38;;;;;;;9.63;6.03;;;18.70;99.90;;;;;;5045103;28;20029;-71
2022/07/21 00:43:03;;;;;;;10.73;6.10;;;18.70;99.90;;;;;;5041873;28;20401;-70
2022/07/21 00:45:30;;;;;;;9.80;6.07;;;18.60;99.90;;;;;;5042642;28;20042;-70
2022/07/21 00:47:56;;;;;;;11.98;6.13;;;18.60;99.90;;;;;;5041051;28;20047;-70
2022/07/21 00:50:22;;;;;;;9.93;5.55;;;18.60;99.90;;;;;;5046001;28;20031;-70
2022/07/21 00:52:48;;;;;;;10.93;5.90;;;18.60;99.90;;;;;;5036499;28;20107;-71
2022/07/21 00:55:17;;;;;;;8.65;5.45;;;18.50;99.90;;;;;;5047083;28;20032;-71
2022/07/21 00:57:43;;;;;;;10.35;5.80;;;18.50;99.90;;;;;;5033777;28;20040;-70
2022/07/21 01:00:12;;;;;;;9.75;5.20;;;18.50;99.90;;;;;;5045723;28;20033;-71
2022/07/21 01:02:38;;;;;;;10.18;5.32;;;18.50;99.90;;;;;;5039331;28;20130;-70
2022/07/21 01:05:14;;;;;;;10.73;5.18;;;18.50;99.90;;;;;;5046962;28;20098;-70
2022/07/21 01:07:46;;;;;;;8.40;4.97;;;18.50;99.90;;;;;;5040249;28;20034;-70
2022/07/21 01:10:13;;;;;;;7.65;5.10;;;18.50;99.90;;;;;;5041769;28;20029;-70
2022/07/21 01:12:39;;;;;;;10.82;5.80;;;18.40;99.90;;;;;;5048815;28;20554;-70
2022/07/21 01:15:06;;;;;;;14.15;5.80;;;18.40;99.90;;;;;;5047304;28;20033;-70
2022/07/21 01:17:33;;;;;;;9.25;5.90;;;18.40;99.90;;;;;;5043149;28;20039;-70
2022/07/21 01:20:05;;;;;;;10.23;6.07;;;18.40;99.90;;;;;;5046391;28;20271;-70
2022/07/21 01:22:33;;;;;;;8.52;5.32;;;18.40;99.90;;;;;;5045738;28;20568;-70
2022/07/21 01:24:59;;;;;;;10.45;6.28;;;18.40;99.90;;;;;;5045023;28;20194;-71
2022/07/21 01:27:26;;;;;;;9.45;5.38;;;18.50;99.90;;;;;;5044950;28;20720;-70
2022/07/21 01:29:53;;;;;;;8.38;6.05;;;18.50;99.90;;;;;;5044153;28;20063;-70
2022/07/21 01:32:19;;;;;;;10.52;5.47;;;18.50;99.90;;;;;;5043196;28;20033;-70
2022/07/21 01:34:45;;;;;;;11.63;6.53;;;18.40;99.90;;;;;;5042444;28;20049;-70
2022/07/21 01:37:11;;;;;;;10.00;6.25;;;18.40;99.90;;;;;;5046997;28;20025;-70
2022/07/21 01:42:21;;;;;;;10.40;6.50;;;18.50;99.90;;;;;;5041459;28;20040;-70
2022/07/21 01:44:48;;;;;;;13.18;6.30;;;18.50;99.90;;;;;;5043991;28;20033;-70
2022/07/21 01:47:14;;;;;;;11.20;6.35;;;18.50;99.90;;;;;;5037512;28;20399;-71
2022/07/21 01:49:40;;;;;;;9.73;6.40;;;18.40;99.90;;;;;;5046222;28;20033;-70
2022/07/21 01:52:06;;;;;;;13.18;7.75;;;18.40;99.90;;;;;;5035509;28;20533;-71
2022/07/21 01:54:32;;;;;;;14.65;7.13;;;18.40;99.90;;;;;;5040167;28;20029;-71
2022/07/21 01:56:57;;;;;;;12.45;7.47;;;18.40;99.90;;;;;;5031331;28;20689;-70
2022/07/21 01:59:23;;;;;;;13.45;8.18;;;18.40;99.90;;;;;;5039656;28;20037;-70
2022/07/21 02:01:49;;;;;;;14.57;8.23;;;18.40;99.90;;;;;;5042387;28;20051;-69
2022/07/21 02:04:15;;;;;;;11.25;7.30;;;18.40;99.90;;;;;;5033122;28;20045;-70
2022/07/21 02:06:40;;;;;;;13.57;7.63;;;18.40;99.90;;;;;;5045183;28;20043;-70
2022/07/21 02:09:08;;;;;;;12.70;7.00;;;18.40;99.90;;;;;;5044946;28;20132;-69
2022/07/21 02:11:34;;;;;;;10.50;7.40;;;18.40;99.90;;;;;;5048032;28;20442;-70
2022/07/21 02:14:01;;;;;;;12.00;7.25;;;18.40;99.90;;;;;;5033312;28;20108;-69
2022/07/21 02:16:27;;;;;;;11.50;7.25;;;18.40;99.90;;;;;;5028469;28;20029;-70
2022/07/21 02:18:52;;;;;;;14.25;7.47;;;18.40;99.90;;;;;;5047284;28;20043;-70
2022/07/21 02:21:19;;;;;;;13.18;7.32;;;18.40;99.90;;;;;;5045892;28;20040;-69
2022/07/21 02:23:45;;;;;;;11.45;7.03;;;18.40;99.90;;;;;;5045071;28;20292;-70
2022/07/21 02:26:10;;;;;;;10.88;7.07;;;18.40;99.90;;;;;;5045319;28;20477;-69
2022/07/21 02:28:36;;;;;;;10.63;6.82;;;18.40;99.90;;;;;;5037803;28;20498;-70
2022/07/21 02:31:02;;;;;;;13.63;6.97;;;18.40;99.90;;;;;;5047688;28;20433;-70
2022/07/21 02:33:28;;;;;;;11.77;7.20;;;18.40;99.90;;;;;;5043203;28;20033;-69
2022/07/21 02:35:54;;;;;;;12.38;7.22;;;18.30;99.90;;;;;;5032794;28;20080;-70
2022/07/21 02:38:20;;;;;;;10.98;7.43;;;18.30;99.90;;;;;;5042584;28;20479;-70
2022/07/21 02:40:45;;;;;;;10.50;7.13;;;18.30;99.90;;;;;;5045697;28;20025;-70
2022/07/21 02:43:12;;;;;;;11.80;6.97;;;18.20;99.90;;;;;;5031350;28;20037;-70
2022/07/21 02:45:39;;;;;;;12.38;6.50;;;18.20;99.90;;;;;;5041312;28;20049;-70
2022/07/21 02:48:07;;;;;;;10.18;5.82;;;18.20;99.90;;;;;;5046817;28;20110;-70
2022/07/21 02:50:35;;;;;;;9.30;5.90;;;18.20;99.90;;;;;;5045141;28;20036;-71
2022/07/21 02:53:04;;;;;;;9.45;5.50;;;18.20;99.90;;;;;;5047641;28;20111;-69
2022/07/21 02:55:30;;;;;;;10.07;5.35;;;18.10;99.90;;;;;;5037514;28;20479;-71
2022/07/21 02:58:06;;;;;;;10.45;5.57;;;18.10;99.90;;;;;;5028088;28;20049;-70
2022/07/21 03:00:33;;;;;;;10.20;5.72;;;18.00;99.90;;;;;;5041408;28;20047;-70
2022/07/21 03:02:59;;;;;;;8.55;5.43;;;18.10;99.90;;;;;;5028028;28;20040;-71
2022/07/21 03:05:24;;;;;;;10.57;5.50;;;18.00;99.90;;;;;;5034293;28;20049;-69
2022/07/21 03:07:50;;;;;;;8.13;5.13;;;18.00;99.90;;;;;;5045175;28;20037;-70
2022/07/21 03:10:15;;;;;;;7.25;5.03;;;17.90;99.90;;;;;;5047657;28;20037;-70
2022/07/21 03:12:41;;;;;;;8.65;4.75;;;17.90;99.90;;;;;;5043251;28;20037;-70
2022/07/21 03:15:08;;;;;;;9.35;5.30;;;17.90;99.90;;;;;;5045336;28;20039;-71
2022/07/21 03:17:33;;;;;;;8.93;4.90;;;17.80;99.90;;;;;;5050918;28;20086;-70
2022/07/21 03:19:59;;;;;;;9.30;4.70;;;17.80;99.90;;;;;;5048270;28;20036;-70
2022/07/21 03:22:24;;;;;;;10.25;5.57;;;17.80;99.90;;;;;;5051011;28;20155;-70
2022/07/21 03:24:50;;;;;;;11.10;4.97;;;17.70;99.90;;;;;;5038444;28;20088;-71
2022/07/21 03:27:17;;;;;;;8.27;4.88;;;17.70;99.90;;;;;;5048851;28;20040;-71
2022/07/21 03:29:43;;;;;;;10.45;5.10;;;17.70;99.90;;;;;;5048417;28;20033;-71
2022/07/21 03:32:08;;;;;;;9.15;5.07;;;17.70;99.90;;;;;;5051073;28;20040;-70
2022/07/21 03:34:35;;;;;;;9.32;5.15;;;17.70;99.90;;;;;;5041356;28;20447;-71
2022/07/21 03:37:00;;;;;;;8.70;4.90;;;17.60;99.90;;;;;;5050677;28;20041;-71
2022/07/21 03:39:26;;;;;;;9.35;4.70;;;17.60;99.90;;;;;;5048851;28;20041;-71
2022/07/21 03:41:52;;;;;;;10.93;5.13;;;17.60;99.90;;;;;;5049703;28;20123;-71
2022/07/21 03:44:17;;;;;;;9.80;4.80;;;17.60;99.90;;;;;;5041595;28;20426;-71
2022/07/21 03:46:43;;;;;;;9.13;4.80;;;17.70;99.90;;;;;;5047347;28;20036;-71
2022/07/21 03:49:09;;;;;;;9.57;4.82;;;17.70;99.90;;;;;;5048363;28;20036;-71
2022/07/21 03:51:34;;;;;;;11.90;4.57;;;17.60;99.90;;;;;;5031879;28;20033;-71
2022/07/21 03:54:01;;;;;;;9.07;4.10;;;17.60;99.90;;;;;;5039931;28;20112;-71
2022/07/21 03:56:27;;;;;;;10.55;4.55;;;17.60;99.90;;;;;;5033424;28;20458;-70
2022/07/21 03:58:53;;;;;;;7.38;4.30;;;17.60;99.90;;;;;;5047566;28;20044;-70
2022/07/21 04:01:19;;;;;;;8.20;4.65;;;17.60;99.90;;;;;;5040413;28;20107;-70
2022/07/21 04:03:44;;;;;;;8.57;4.10;;;17.60;99.90;;;;;;5039291;28;20114;-70
2022/07/21 04:06:10;;;;;;;9.20;3.75;;;17.60;99.90;;;;;;5042371;28;20094;-70
2022/07/21 04:08:39;;;;;;;8.15;3.80;;;17.60;99.90;;;;;;5032345;28;20564;-71
2022/07/21 04:11:05;;;;;;;7.80;3.87;;;17.60;99.90;;;;;;5036562;28;20057;-70
2022/07/21 04:13:31;;;;;;;7.85;4.07;;;17.50;99.90;;;;;;5049789;28;20060;-70
2022/07/21 04:15:57;;;;;;;8.30;3.85;;;17.50;99.90;;;;;;5042114;28;20064;-70
2022/07/21 04:18:23;;;;;;;9.70;4.03;;;17.50;99.90;;;;;;5044792;28;20033;-70
2022/07/21 04:20:48;;;;;;;7.68;3.50;;;17.50;99.90;;;;;;5041830;28;20080;-70
2022/07/21 04:23:14;;;;;;;12.13;3.83;;;17.40;99.90;;;;;;5049977;28;20037;-70
2022/07/21 04:25:40;;;;;;;6.93;3.45;;;17.40;99.90;;;;;;5031399;28;20049;-70
2022/07/21 04:28:06;;;;;;;8.07;3.58;;;17.40;99.90;;;;;;5039302;28;20041;-70
2022/07/21 04:30:31;;;;;;;7.65;3.65;;;17.40;99.90;;;;;;5032547;28;20036;-70
2022/07/21 04:32:57;;;;;;;10.40;3.65;;;17.40;99.90;;;;;;5033938;28;20029;-70
2022/07/21 04:35:23;;;;;;;8.55;3.00;;;17.40;99.90;;;;;;5018992;28;20894;-71
2022/07/21 04:37:49;;;;;;;7.88;3.28;;;17.30;99.90;;;;;;5023092;28;20027;-70
2022/07/21 04:40:16;;;;;;;7.47;3.47;;;17.30;99.90;;;;;;5025814;28;20117;-71
2022/07/21 04:42:42;;;;;;;6.85;3.00;;;17.30;99.90;;;;;;5028451;28;20038;-71
2022/07/21 04:45:10;;;;;;;5.97;3.13;;;17.30;99.90;;;;;;5007622;28;20103;-71
2022/07/21 04:47:56;;;;;;;8.25;3.28;;;17.30;99.90;;;;;;5033873;28;20033;-71
2022/07/21 04:50:24;;;;;;;6.40;2.90;;;17.30;99.90;;;;;;5022171;28;20112;-71
2022/07/21 04:52:50;;;;;;;5.55;2.97;;;17.30;99.90;;;;;;5010009;28;20045;-71
2022/07/21 04:55:17;;;;;;;7.47;2.70;;;17.30;99.90;;;;;;5015473;28;20029;-71
2022/07/21 04:57:46;;;;;;;5.40;2.63;;;17.30;99.90;;;;;;5044469;28;20071;-71
2022/07/21 05:00:17;;;;;;;8.63;2.97;;;17.30;99.90;;;;;;5010870;28;20384;-70
2022/07/21 05:02:43;;;;;;;6.82;3.03;;;17.30;99.90;;;;;;5032676;28;20029;-71
2022/07/21 05:05:09;;;;;;;9.07;3.08;;;17.20;99.90;;;;;;5019322;28;20033;-71
2022/07/21 05:07:35;;;;;;;6.15;2.58;;;17.20;99.90;;;;;;5016853;28;20450;-70
2022/07/21 05:10:09;;;;;;;9.52;2.95;;;17.20;99.90;;;;;;5022592;28;20120;-70
2022/07/21 05:12:35;;;;;;;6.05;2.40;;;17.10;99.90;;;;;;5011247;28;20029;-70
2022/07/21 05:15:02;;;;;;;6.05;2.65;;;17.20;99.90;;;;;;5009861;28;20583;-71
2022/07/21 05:17:27;;;;;;;7.28;2.70;;;17.10;99.90;;;;;;5032309;28;20120;-70
2022/07/21 05:19:53;;;;;;;6.72;2.58;;;17.10;99.90;;;;;;5020586;28;20108;-71
2022/07/21 05:22:19;;;;;;;6.75;2.85;;;17.10;99.90;;;;;;5020873;28;20518;-71
2022/07/21 05:24:45;;;;;;;5.00;2.60;;;17.10;99.90;;;;;;5028545;28;20087;-70
2022/07/21 05:27:11;;;;;;;7.97;2.55;;;17.10;99.90;;;;;;5013203;28;20057;-71
2022/07/21 05:29:37;;;;;;;8.05;2.70;;;17.10;99.90;;;;;;5037941;28;20056;-71
2022/07/21 05:32:03;;;;;;;9.93;2.92;;;17.20;99.90;;;;;;5027156;28;20030;-71
2022/07/21 05:34:29;;;;;;;5.18;2.30;;;17.20;99.90;;;;;;5012897;28;20116;-70
2022/07/21 05:36:54;;;;;;;4.93;2.58;;;17.20;99.90;;;;;;5022443;28;20113;-69
2022/07/21 05:39:20;;;;;;;5.50;2.40;;;17.20;99.90;;;;;;5013988;28;20065;-69
2022/07/21 05:41:46;;;;;;;8.98;2.92;;;17.20;99.90;;;;;;5029606;28;20025;-70
2022/07/21 05:44:12;;;;;;;7.55;2.47;;;17.20;99.90;;;;;;5036735;28;20113;-69
2022/07/21 05:46:37;;;;;;;6.53;1.92;;;17.30;99.90;;;;;;5011720;28;20701;-70
2022/07/21 05:49:04;;;;;;;4.68;2.17;;;17.20;99.90;;;;;;5002269;28;20382;-69
2022/07/21 05:51:30;;;;;;;5.05;2.42;;;17.30;99.90;;;;;;5019308;28;20037;-69
2022/07/21 05:53:55;;;;;;;5.88;2.50;;;17.30;99.90;;;;;;5022981;28;20056;-70
2022/07/21 05:56:21;;;;;;;5.20;2.25;;;17.20;99.90;;;;;;5024774;28;20037;-70
2022/07/21 05:58:47;;;;;;;4.38;2.03;;;17.20;99.90;;;;;;5009808;28;20070;-70
2022/07/21 06:01:12;;;;;;;7.82;2.80;;;17.20;99.90;;;;;;5013910;28;20144;-71
2022/07/21 06:03:42;;;;;;;8.73;2.75;;;17.20;99.90;;;;;;5017751;28;20042;-70
2022/07/21 06:06:08;;;;;;;5.07;2.17;;;17.30;99.90;;;;;;5005549;28;20042;-70
2022/07/21 06:08:34;;;;;;;4.72;1.98;;;17.30;99.90;;;;;;5025497;28;20033;-69
2022/07/21 06:11:00;;;;;;;6.97;2.67;;;17.30;99.90;;;;;;5010910;28;20033;-70
2022/07/21 06:13:26;;;;;;;6.75;2.50;;;17.30;99.90;;;;;;5018710;28;20029;-70
2022/07/21 06:15:51;;;;;;;6.82;2.55;;;17.30;99.90;;;;;;4995838;28;20037;-70
2022/07/21 06:18:17;;;;;;;6.15;2.40;;;17.30;99.90;;;;;;5008043;28;20038;-70
2022/07/21 06:20:43;;;;;;;12.13;2.88;;;17.30;99.90;;;;;;5013523;28;20029;-71
2022/07/21 06:23:09;;;;;;;6.32;2.45;;;17.20;99.90;;;;;;5009559;28;20028;-70
2022/07/21 06:25:34;;;;;;;8.20;2.40;;;17.30;99.90;;;;;;5033757;28;20053;-69
2022/07/21 06:28:00;;;;;;;6.13;2.45;;;17.30;99.90;;;;;;5045915;28;20032;-71
2022/07/21 06:30:26;;;;;;;7.35;2.60;;;17.30;99.90;;;;;;5051832;28;20482;-71
2022/07/21 06:32:51;;;;;;;5.93;2.50;;;17.30;99.90;;;;;;5040764;28;20029;-71
2022/07/21 06:35:17;;;;;;;6.60;2.80;;;17.30;99.90;;;;;;5039147;28;20048;-70
2022/07/21 06:37:46;;;;;;;5.97;2.50;;;17.30;99.90;;;;;;5035960;28;20033;-71
2022/07/21 06:40:13;;;;;;;8.13;2.90;;;17.40;99.90;;;;;;5043723;28;20486;-70
2022/07/21 06:42:39;;;;;;;5.30;2.13;;;17.40;99.90;;;;;;5033148;28;20037;-71
2022/07/21 06:45:05;;;;;;;6.20;2.55;;;17.50;99.90;;;;;;5043509;28;20600;-71
2022/07/21 06:47:30;;;;;;;6.65;2.60;;;17.60;99.90;;;;;;5041465;28;20083;-71
2022/07/21 06:50:02;;;;;;;6.68;2.58;;;17.60;99.90;;;;;;5044810;28;20421;-71
2022/07/21 06:52:31;;;;;;;7.47;3.00;;;17.70;99.90;;;;;;5044765;28;20061;-71
2022/07/21 06:54:57;;;;;;;;;;;17.70;99.90;;;;;;5041501;28;20040;-71
2022/07/21 06:57:23;;;;;;;7.47;2.53;;;17.80;99.90;;;;;;5034889;28;19913;-71
2022/07/21 06:59:48;;;;;;;8.55;3.05;;;17.80;99.90;;;;;;5043754;28;20083;-70
2022/07/21 07:02:14;;;;;;;8.35;2.45;;;17.90;99.90;;;;;;5044339;28;20573;-71
2022/07/21 07:04:40;;;;;;;5.53;2.80;;;17.90;99.90;;;;;;5036497;28;20039;-70
2022/07/21 07:07:06;;;;;;;6.63;2.50;;;18.00;99.90;;;;;;5037227;28;20037;-70
2022/07/21 07:09:31;;;;;;;7.45;2.90;;;18.10;99.90;;;;;;5039501;28;20505;-71
2022/07/21 07:12:03;;;;;;;7.45;2.83;;;18.20;99.90;;;;;;5038874;28;20057;-71
2022/07/21 07:14:33;;;;;;;6.63;2.35;;;18.30;99.90;;;;;;5033823;28;20033;-71
2022/07/21 07:16:59;;;;;;;9.02;2.42;;;18.50;99.90;;;;;;5036075;28;20044;-71
2022/07/21 07:19:25;;;;;;;6.68;2.30;;;18.50;99.90;;;;;;5040515;28;20450;-70
2022/07/21 07:21:51;;;;;;;7.32;2.70;;;18.70;99.90;;;;;;5030144;28;20116;-71
2022/07/21 07:24:17;;;;;;;5.22;2.25;;;18.80;99.90;;;;;;5031678;28;20061;-71
2022/07/21 07:26:42;;;;;;;7.03;2.70;;;18.90;99.90;;;;;;5034721;28;20045;-69
2022/07/21 07:29:08;;;;;;;6.53;2.67;;;19.00;99.90;;;;;;5032916;28;20037;-71
2022/07/21 07:31:34;;;;;;;6.05;2.22;;;19.10;99.90;;;;;;5028675;28;20060;-72
2022/07/21 07:34:00;;;;;;;6.97;2.83;;;19.20;99.90;;;;;;5031259;28;20040;-72
2022/07/21 07:36:27;;;;;;;9.20;2.88;;;19.30;99.90;;;;;;5027540;28;20044;-72
2022/07/21 07:38:54;;;;;;;6.43;3.20;;;19.30;99.90;;;;;;5041178;28;20031;-72
2022/07/21 07:41:21;;;;;;;7.43;2.78;;;19.40;99.90;;;;;;5047468;28;20052;-73
2022/07/21 07:43:47;;;;;;;5.93;2.80;;;19.50;99.90;;;;;;5033339;28;20044;-72
2022/07/21 07:46:13;;;;;;;6.88;2.83;;;19.60;99.90;;;;;;5027283;28;20459;-71
2022/07/21 07:48:41;;;;;;;6.18;2.70;;;19.70;99.90;;;;;;5041153;28;20116;-71
2022/07/21 07:51:08;;;;;;;8.05;3.05;;;19.80;99.90;;;;;;5045915;28;20037;-72
2022/07/21 07:53:33;;;;;;;8.40;3.08;;;19.80;99.90;;;;;;5027444;28;20034;-72
2022/07/21 07:55:59;;;;;;;8.48;2.88;;;19.90;99.90;;;;;;5039938;28;20044;-72
2022/07/21 07:58:25;;;;;;;7.15;3.22;;;19.90;99.90;;;;;;5031210;28;20112;-73
2022/07/21 08:00:51;;;;;;;5.28;2.75;;;20.00;99.90;;;;;;5048387;28;20040;-72
2022/07/21 08:03:17;;;;;;;10.60;4.10;;;20.00;99.90;;;;;;5032993;28;20403;-72
2022/07/21 08:05:43;;;;;;;8.63;3.17;;;20.20;99.90;;;;;;5050907;28;20040;-71
2022/07/21 08:08:09;;;;;;;7.47;3.00;;;20.10;99.90;;;;;;5051105;28;20167;-71
2022/07/21 08:10:35;;;;;;;10.35;3.50;;;20.20;99.90;;;;;;5050916;28;20060;-70
2022/07/21 08:13:01;;;;;;;7.60;2.90;;;20.30;99.90;;;;;;5050716;28;20505;-70
2022/07/21 08:15:26;;;;;;;7.35;2.90;;;20.40;99.90;;;;;;5050232;28;20517;-70
2022/07/21 08:17:52;;;;;;;9.02;3.17;;;20.40;99.90;;;;;;5049771;28;20033;-70
2022/07/21 08:20:18;;;;;;;9.57;3.10;;;20.50;99.90;;;;;;5031068;28;20036;-70
2022/07/21 08:22:43;;;;;;;10.82;3.15;;;20.60;99.90;;;;;;5030638;28;20566;-70
2022/07/21 08:25:09;;;;;;;6.95;3.38;;;20.60;99.90;;;;;;5029923;28;20057;-70
2022/07/21 08:27:35;;;;;;;6.70;3.05;;;20.80;99.90;;;;;;5028526;28;20073;-71
2022/07/21 08:30:01;;;;;;;7.07;3.10;;;20.80;99.90;;;;;;5028632;28;20037;-71
2022/07/21 08:32:26;;;;;;;7.85;3.25;;;20.90;99.90;;;;;;5049391;28;20033;-71
2022/07/21 08:34:52;;;;;;;8.70;3.28;;;21.00;99.90;;;;;;5029486;28;20040;-76
2022/07/21 08:37:21;;;;;;;8.07;3.05;;;21.10;99.90;;;;;;5048555;28;20029;-75
2022/07/21 08:39:47;;;;;;;8.18;2.97;;;21.10;99.90;;;;;;5050049;28;20681;-73
2022/07/21 08:42:14;;;;;;;7.20;3.10;;;21.20;99.90;;;;;;5048224;28;20037;-73
2022/07/21 08:44:40;;;;;;;8.63;3.55;;;21.20;99.90;;;;;;5049651;28;20124;-74
2022/07/21 08:47:06;;;;;;;7.82;2.95;;;21.30;99.90;;;;;;5048670;28;20127;-74
2022/07/21 08:49:34;;;;;;;8.43;2.92;;;21.40;99.90;;;;;;5049578;28;20036;-74
2022/07/21 08:52:00;;;;;;;9.70;3.42;;;21.50;99.90;;;;;;5047956;28;20152;-73
2022/07/21 08:54:26;;;;;;;8.32;3.33;;;21.60;99.90;;;;;;5049440;28;20041;-74
2022/07/21 08:56:52;;;;;;;8.48;3.22;;;21.60;99.90;;;;;;5049742;28;20812;-74
2022/07/21 08:59:18;;;;;;;12.30;3.78;;;21.70;99.90;;;;;;5049703;28;20040;-73
2022/07/21 09:01:43;;;;;;;7.80;3.00;;;21.70;99.90;;;;;;5049721;28;20056;-73
2022/07/21 09:04:30;;;;;;;9.15;3.50;;;21.80;99.90;;;;;;5049017;28;20095;-73
2022/07/21 09:06:57;;;;;;;6.72;3.00;;;21.90;99.90;;;;;;5049299;28;20028;-73
2022/07/21 09:09:24;;;;;;;6.38;3.33;;;22.10;99.90;;;;;;5043649;28;20037;-74
2022/07/21 09:11:51;;;;;;;6.78;3.47;;;22.20;99.90;;;;;;5029270;28;20827;-75
2022/07/21 09:14:21;;;;;;;8.55;2.97;;;22.30;99.90;;;;;;5028319;28;20059;-75
2022/07/21 09:16:52;;;;;;;6.78;3.00;;;22.40;99.90;;;;;;5029603;28;20674;-77
2022/07/21 09:19:35;;;;;;;7.60;3.08;;;22.50;99.90;;;;;;5029587;28;20099;-74
2022/07/21 09:22:05;;;;;;;8.05;3.22;;;22.50;99.90;;;;;;5040863;28;20052;-76
2022/07/21 09:24:39;;;;;;;8.77;3.03;;;22.50;99.90;;;;;;5048670;28;20429;-74
2022/07/21 09:27:27;;;;;;;7.93;3.15;;;22.60;99.90;;;;;;5038991;28;20147;-75
2022/07/21 09:30:00;;;;;;;9.02;3.55;;;22.80;99.90;;;;;;5036254;28;20037;-75
2022/07/21 09:32:31;;;;;;;7.55;3.05;;;22.90;99.90;;;;;;5049059;28;20052;-74
2022/07/21 09:35:00;;;;;;;8.40;3.28;;;22.90;99.90;;;;;;5048928;28;20410;-74
2022/07/21 09:37:27;;;;;;;6.30;2.97;;;23.00;99.90;;;;;;5048964;28;20082;-72
2022/07/21 09:39:53;;;;;;;10.82;3.45;;;23.10;99.90;;;;;;5048448;28;20398;-74
2022/07/21 09:42:19;;;;;;;7.60;3.03;;;23.10;99.90;;;;;;5048893;28;20497;-74
2022/07/21 09:44:50;;;;;;;7.65;3.13;;;23.30;99.90;;;;;;5033196;28;20029;-73
2022/07/21 09:47:18;;;;;;;8.85;3.22;;;23.60;99.90;;;;;;5029261;28;20037;-73
2022/07/21 09:49:44;;;;;;;7.47;2.80;;;23.90;99.20;;;;;;5029069;28;20021;-73
2022/07/21 09:52:21;;;;;;;8.52;3.30;;;23.90;99.00;;;;;;5028781;28;20033;-74
2022/07/21 09:54:47;;;;;;;7.75;3.20;;;23.90;98.80;;;;;;5030355;28;20034;-75
2022/07/21 09:57:15;;;;;;;6.60;3.28;;;23.90;98.30;;;;;;5051180;28;20032;-75
2022/07/21 09:59:46;;;;;;;7.63;3.10;;;24.00;98.50;;;;;;5049070;28;20029;-70
2022/07/21 10:02:17;;;;;;;7.50;3.30;;;24.00;98.30;;;;;;5031108;28;20071;-70
2022/07/21 10:04:45;;;;;;;8.20;3.05;;;24.10;97.90;;;;;;5045255;28;20040;-70
2022/07/21 10:07:11;;;;;;;5.00;2.80;;;24.30;97.50;;;;;;5046040;28;20052;-71
2022/07/21 10:09:37;;;;;;;7.20;2.53;;;24.30;97.50;;;;;;5039866;28;20034;-69
2022/07/21 10:12:03;;;;;;;8.93;3.08;;;24.40;98.10;;;;;;5040320;28;20063;-70
2022/07/21 10:14:29;;;;;;;5.82;2.92;;;24.30;97.80;;;;;;5048400;28;20048;-70
2022/07/21 10:16:54;;;;;;;8.85;3.28;;;24.30;98.00;;;;;;5033977;28;20033;-70
2022/07/21 10:19:27;;;;;;;7.05;3.05;;;24.50;97.50;;;;;;5037086;28;20545;-69
2022/07/21 10:21:59;;;;;;;6.97;3.10;;;24.60;97.30;;;;;;5025775;28;20046;-69
2022/07/21 10:24:28;;;;;;;7.07;3.10;;;24.80;97.00;;;;;;5031769;28;20083;-70
2022/07/21 10:27:12;;;;;;;8.07;3.30;;;25.00;96.70;;;;;;5037395;28;20119;-68
2022/07/21 10:29:47;;;;;;;5.97;3.38;;;25.00;96.20;;;;;;5036388;28;20029;-69
2022/07/21 10:32:15;;;;;;;8.32;3.42;;;25.10;96.40;;;;;;5048478;28;20107;-68
2022/07/21 10:34:41;;;;;;;7.25;3.90;;;25.20;96.10;;;;;;5050613;28;20390;-71
2022/07/21 10:37:06;;;;;;;6.75;3.42;;;25.40;94.60;;;;;;5036344;28;20033;-70
2022/07/21 10:39:35;;;;;;;6.75;3.17;;;25.30;95.30;;;;;;5024717;28;20029;-68
2022/07/21 10:42:16;;;;;;;8.20;3.55;;;25.60;95.00;;;;;;5046958;28;20063;-69
2022/07/21 10:44:46;;;;;;;6.13;2.97;;;25.70;95.70;;;;;;5038320;28;20033;-71
2022/07/21 10:47:18;;;;;;;10.23;3.65;;;25.60;95.20;;;;;;5044714;28;20029;-71
2022/07/21 10:49:46;;;;;;;7.05;3.40;;;25.40;95.30;;;;;;5027236;28;20029;-69
2022/07/21 10:52:41;;;;;;;7.00;3.30;;;25.10;95.40;;;;;;5045078;28;20060;-69
2022/07/21 10:55:13;;;;;;;7.03;3.50;;;24.80;95.70;;;;;;5046482;28;20036;-69
2022/07/21 10:57:46;;;;;;;6.53;3.58;;;24.60;96.80;;;;;;5044612;28;20037;-69
2022/07/21 11:00:18;;;;;;;7.97;3.25;;;24.50;96.40;;;;;;5043701;28;20376;-70
2022/07/21 11:02:47;;;;;;;6.57;3.08;;;24.50;96.90;;;;;;5036830;28;20589;-71
2022/07/21 11:05:13;;;;;;;6.97;3.55;;;24.50;96.40;;;;;;5044672;28;20037;-70
2022/07/21 11:08:15;;;;;;;6.15;3.17;;;24.50;96.70;;;;;;5021055;28;20087;-69
2022/07/21 11:10:47;;;;;;;7.38;2.97;;;24.60;97.20;;;;;;5037527;28;20041;-70
2022/07/21 11:13:14;;;;;;;6.55;2.97;;;25.10;96.90;;;;;;5052029;28;20641;-71
2022/07/21 11:15:50;;;;;;;8.98;3.40;;;25.50;95.10;;;;;;5026321;28;20119;-70
2022/07/21 11:18:21;;;;;;;7.95;3.85;;;25.60;94.50;;;;;;5045206;28;20041;-70
2022/07/21 11:21:15;;;;;;;6.88;3.15;;;25.40;94.40;;;;;;5042865;28;20029;-69
2022/07/21 11:23:47;;;;;;;6.55;3.28;;;25.20;95.30;;;;;;5023146;28;20025;-69
2022/07/21 11:26:18;;;;;;;8.80;3.25;;;25.10;96.20;;;;;;5015743;28;20080;-73
2022/07/21 11:28:46;;;;;;;7.07;3.40;;;24.90;95.90;;;;;;5037614;28;20033;-74
2022/07/21 11:31:24;;;;;;;8.02;3.67;;;24.70;96.00;;;;;;5025713;28;20529;-74
2022/07/21 11:33:50;;;;;;;8.95;3.35;;;24.60;96.20;;;;;;5038873;28;20046;-74
2022/07/21 11:36:30;;;;;;;7.53;3.28;;;24.50;96.70;;;;;;5045324;28;20055;-74
2022/07/21 11:38:57;;;;;;;7.10;2.97;;;24.40;96.50;;;;;;5031364;28;20115;-74
2022/07/21 11:41:23;;;;;;;6.70;3.13;;;24.30;96.30;;;;;;5043304;28;20037;-73
2022/07/21 11:43:48;;;;;;;6.82;3.60;;;24.30;96.40;;;;;;5028520;28;20697;-75
2022/07/21 11:46:14;;;;;;;6.50;3.58;;;24.20;96.80;;;;;;5037900;28;20411;-72
2022/07/21 11:48:40;;;;;;;9.07;4.00;;;24.20;96.80;;;;;;5036515;28;20075;-74
2022/07/21 11:51:07;;;;;;;8.68;3.72;;;24.20;96.50;;;;;;5024418;28;20030;-71
2022/07/21 11:53:33;;;;;;;6.22;3.35;;;24.20;96.80;;;;;;5032094;28;20033;-71
2022/07/21 11:55:59;;;;;;;6.10;3.13;;;24.20;96.30;;;;;;5028970;28;20034;-71
2022/07/21 11:58:25;;;;;;;7.22;3.92;;;24.30;97.30;;;;;;5026226;28;20229;-71
2022/07/21 12:01:05;;;;;;;6.90;3.58;;;24.40;97.00;;;;;;5029705;28;20502;-71
2022/07/21 12:03:31;;;;;;;7.25;3.28;;;24.50;96.30;;;;;;5023044;28;20437;-71
2022/07/21 12:05:58;;;;;;;6.68;3.25;;;24.70;96.30;;;;;;5030348;28;20103;-71
2022/07/21 12:08:24;;;;;;;8.13;3.53;;;24.90;96.10;;;;;;5017243;28;20140;-72
2022/07/21 12:10:50;;;;;;;12.80;4.00;;;25.30;95.00;;;;;;5028467;28;20128;-76
2022/07/21 12:13:15;;;;;;;6.63;3.47;;;25.60;94.50;;;;;;5034447;28;20155;-74
2022/07/21 12:15:41;;;;;;;8.45;3.85;;;25.70;93.90;;;;;;5032088;28;20037;-75
2022/07/21 12:18:16;;;;;;;7.68;3.72;;;25.70;93.30;;;;;;5023674;28;20049;-75
2022/07/21 12:20:42;;;;;;;7.10;3.65;;;25.80;93.00;;;;;;5013108;28;20129;-74
2022/07/21 12:23:22;;;;;;;6.38;3.50;;;26.00;93.80;;;;;;5031960;28;20120;-73
2022/07/21 12:25:48;;;;;;;7.03;3.38;;;26.30;92.30;;;;;;5041150;28;20045;-74
2022/07/21 12:28:14;;;;;;;7.07;3.72;;;26.40;93.00;;;;;;5046281;28;20141;-75
2022/07/21 12:30:44;;;;;;;7.10;3.40;;;26.30;92.30;;;;;;5047482;28;20025;-72
2022/07/21 12:33:09;;;;;;;;;;;26.20;91.80;;;;;;5045984;28;20033;-74
2022/07/21 12:35:37;;;;;;;6.18;3.60;;;26.00;92.40;;;;;;5046663;28;20685;-74
2022/07/21 12:38:12;;;;;;;7.57;4.00;;;25.70;92.30;;;;;;5042355;28;20025;-76
2022/07/21 12:40:43;;;;;;;7.45;3.75;;;25.50;92.70;;;;;;5048207;28;20039;-74
2022/07/21 12:43:13;;;;;;;8.02;3.70;;;25.30;93.70;;;;;;5046533;28;20037;-75
2022/07/21 12:45:54;;;;;;;7.30;3.75;;;25.20;94.30;;;;;;5044289;28;20486;-73
2022/07/21 12:48:24;;;;;;;8.07;3.17;;;25.20;94.80;;;;;;5052436;28;20055;-75
2022/07/21 12:51:09;;;;;;;11.27;3.20;;;25.40;95.50;;;;;;5033321;28;20083;-75